Wilson Observed Data For Previous 48 Hours

Caption
Day and Hour Reservoir Elevation (behind dam)* Tailwater Elevation (below dam)* Average Hourly Discharge*
11/11/2018 1 AM CST 507.05 416.77 76,833
11/11/2018 2 AM CST 506.87 416.78 77,100
11/11/2018 3 AM CST 506.73 416.98 76,957
11/11/2018 4 AM CST 506.60 416.78 77,055
11/11/2018 5 AM CST 506.50 416.81 77,626
11/11/2018 6 AM CST 506.48 416.95 77,973
11/11/2018 7 AM CST 506.52 416.82 78,894
11/11/2018 8 AM CST 506.58 416.78 78,224
11/11/2018 9 AM CST 506.63 416.82 76,220
11/11/2018 10 AM CST 506.73 416.69 74,888
11/11/2018 11 AM CST 506.79 416.94 77,613
11/11/2018 12 PM CST 506.77 416.84 78,907
11/11/2018 1 PM CST 506.80 417.14 76,457
11/11/2018 2 PM CST 506.84 415.75 64,109
11/11/2018 3 PM CST 506.90 415.74 64,727
11/11/2018 4 PM CST 506.98 415.83 65,371
11/11/2018 5 PM CST 507.05 416.38 73,929
11/11/2018 6 PM CST 507.10 416.67 76,601
11/11/2018 7 PM CST 507.18 416.69 76,933
11/11/2018 8 PM CST 507.26 416.74 77,094
11/11/2018 9 PM CST 507.30 416.64 76,780
11/11/2018 10 PM CST 507.38 416.74 76,924
11/11/2018 11 PM CST 507.34 416.72 76,815
11/12/2018 12 AM CST 507.25 417.01 77,402
11/12/2018 1 AM CST 507.15 417.58 87,544
11/12/2018 2 AM CST 506.98 417.64 87,813
11/12/2018 3 AM CST 506.81 417.65 88,007
11/12/2018 4 AM CST 506.70 417.66 88,148
11/12/2018 5 AM CST 506.55 417.66 88,155
11/12/2018 6 AM CST 506.51 417.68 88,764
11/12/2018 7 AM CST 506.50 417.72 88,677
11/12/2018 8 AM CST 506.50 417.73 88,677
11/12/2018 9 AM CST 506.52 417.73 88,699
11/12/2018 10 AM CST 506.60 417.97 88,920
11/12/2018 11 AM CST 506.51 417.72 88,902
11/12/2018 12 PM CST 506.46 417.78 89,130
11/12/2018 1 PM CST 506.43 417.80 89,394
11/12/2018 2 PM CST 506.32 417.78 89,152
11/12/2018 3 PM CST 506.22 417.84 89,207
11/12/2018 4 PM CST 506.16 417.77 89,446
11/12/2018 5 PM CST 506.05 417.84 89,680
11/12/2018 6 PM CST 506.09 417.57 86,495
11/12/2018 7 PM CST 506.11 417.36 83,095
11/12/2018 8 PM CST 506.22 417.18 81,934
11/12/2018 9 PM CST 506.24 417.32 81,853
11/12/2018 10 PM CST 506.27 417.71 88,801
11/12/2018 11 PM CST 506.31 417.76 89,211
11/13/2018 12 AM CST 506.33 417.76 89,220
11/13/2018 1 AM CST 506.36 417.75 89,203
11/13/2018 2 AM CST 506.39 417.77 89,376
11/13/2018 3 AM CST 506.42 417.75 89,333
11/13/2018 4 AM CST 506.44 417.74 89,414
11/13/2018 5 AM CST 506.49 417.69 88,856
11/13/2018 6 AM CST 506.52 417.73 89,025
11/13/2018 7 AM CST 506.56 417.49 88,193
11/13/2018 8 AM CST 506.59 417.73 88,097
11/13/2018 9 AM CST 506.64 417.74 89,183

Elevations are in feet above sea level. Discharges are in cubic feet per second and are reported at the end of the hour.